Time;durP1;ratioP1;P1;durP2;ratioP2;P2;SDS_P1;SDS_P2;PMS_P1;PMS_P2;Temp;Humidity;BMP_temperature;BMP_pressure;BME280_temperature;BME280_humidity;BME280_pressure;Samples;Min_cycle;Max_cycle;Signal;HPM_P1;HPM_P2
2021/11/26 00:01:56;;;;;;;18.40;10.73;;;8.70;93.60;;;;;;4975142;28;20031;-64
2021/11/26 00:04:22;;;;;;;21.90;12.15;;;8.70;93.60;;;;;;4975880;28;20053;-64
2021/11/26 00:06:48;;;;;;;16.65;10.30;;;8.70;93.60;;;;;;4974324;28;20144;-65
2021/11/26 00:09:14;;;;;;;21.33;10.30;;;8.60;93.50;;;;;;4974830;28;20058;-65
2021/11/26 00:11:39;;;;;;;20.23;10.80;;;8.60;93.50;;;;;;4974930;28;20054;-64
2021/11/26 00:14:17;;;;;;;19.38;10.95;;;8.60;93.60;;;;;;4975163;28;20027;-65
2021/11/26 00:16:44;;;;;;;22.17;11.43;;;8.60;93.60;;;;;;4974104;28;20034;-65
2021/11/26 00:19:10;;;;;;;19.90;10.20;;;8.60;93.60;;;;;;4973516;28;20034;-65
2021/11/26 00:21:38;;;;;;;21.90;10.40;;;8.60;93.90;;;;;;4955982;28;20027;-64
2021/11/26 00:24:06;;;;;;;17.58;10.27;;;8.60;93.60;;;;;;4975450;28;20066;-65
2021/11/26 00:26:32;;;;;;;21.85;10.68;;;8.60;93.60;;;;;;4974611;28;20504;-66
2021/11/26 00:28:58;;;;;;;19.67;10.95;;;8.60;93.60;;;;;;4974619;28;20094;-65
2021/11/26 00:31:24;;;;;;;18.52;10.13;;;8.50;93.60;;;;;;4974545;28;20207;-64
2021/11/26 00:33:50;;;;;;;19.33;10.85;;;8.50;93.60;;;;;;4973552;28;20035;-65
2021/11/26 00:36:15;;;;;;;18.40;10.00;;;8.50;93.60;;;;;;4975221;28;20027;-65
2021/11/26 00:38:41;;;;;;;16.52;9.63;;;8.50;93.60;;;;;;4956881;28;20126;-64
2021/11/26 00:41:07;;;;;;;19.55;10.75;;;8.50;93.60;;;;;;4974854;28;20342;-65
2021/11/26 00:43:33;;;;;;;18.73;9.15;;;8.50;93.70;;;;;;4973989;28;20054;-65
2021/11/26 00:45:58;;;;;;;20.17;10.55;;;8.50;93.70;;;;;;4974751;28;20041;-65
2021/11/26 00:48:24;;;;;;;20.50;10.75;;;8.50;93.70;;;;;;4973710;28;20062;-65
2021/11/26 00:50:51;;;;;;;23.05;11.38;;;8.50;93.70;;;;;;4974805;28;20030;-65
2021/11/26 00:53:17;;;;;;;18.75;10.27;;;8.60;93.70;;;;;;4968886;28;20102;-65
2021/11/26 00:55:42;;;;;;;17.40;9.93;;;8.50;93.70;;;;;;4967424;28;20127;-65
2021/11/26 00:58:08;;;;;;;17.00;10.32;;;8.50;93.70;;;;;;4967860;28;20031;-65
2021/11/26 01:00:35;;;;;;;18.73;9.10;;;8.50;93.60;;;;;;4974174;28;20094;-65
2021/11/26 01:03:03;;;;;;;18.67;9.27;;;8.50;93.70;;;;;;4973380;28;20031;-65
2021/11/26 01:05:28;;;;;;;19.38;10.93;;;8.50;93.70;;;;;;4973749;28;20510;-65
2021/11/26 01:07:54;;;;;;;21.90;9.90;;;8.40;93.70;;;;;;4963468;28;20046;-65
2021/11/26 01:10:22;;;;;;;19.55;9.93;;;8.50;93.70;;;;;;4972070;28;20037;-65
2021/11/26 01:12:48;;;;;;;20.58;12.00;;;8.50;93.70;;;;;;4973770;28;20038;-66
2021/11/26 01:15:22;;;;;;;18.25;9.82;;;8.50;93.60;;;;;;4974529;28;20185;-65
2021/11/26 01:17:48;;;;;;;17.50;9.80;;;8.50;93.60;;;;;;4972680;28;20037;-66
2021/11/26 01:20:17;;;;;;;20.15;9.70;;;8.50;93.60;;;;;;4974298;28;20038;-65
2021/11/26 01:22:43;;;;;;;15.70;8.85;;;8.50;93.60;;;;;;4972647;28;20030;-65
2021/11/26 01:25:10;;;;;;;17.92;9.65;;;8.40;93.60;;;;;;4974729;28;20540;-65
2021/11/26 01:27:37;;;;;;;16.52;10.13;;;8.50;93.60;;;;;;4973378;28;20575;-65
2021/11/26 01:30:11;;;;;;;18.00;10.15;;;8.40;93.60;;;;;;4973577;28;20037;-66
2021/11/26 01:32:37;;;;;;;16.83;9.52;;;8.40;93.50;;;;;;4972575;28;20058;-65
2021/11/26 01:35:03;;;;;;;19.60;9.77;;;8.50;93.50;;;;;;4973726;28;20038;-65
2021/11/26 01:37:29;;;;;;;16.60;8.95;;;8.50;93.50;;;;;;4972319;28;20418;-66
2021/11/26 01:39:55;;;;;;;17.67;9.63;;;8.40;93.50;;;;;;4974378;28;20086;-66
2021/11/26 01:42:21;;;;;;;19.60;10.52;;;8.50;93.50;;;;;;4972730;28;20141;-65
2021/11/26 01:44:47;;;;;;;16.27;9.48;;;8.50;93.50;;;;;;4974012;28;20062;-65
2021/11/26 01:47:14;;;;;;;15.88;8.75;;;8.50;93.50;;;;;;4955683;28;20018;-65
2021/11/26 01:49:40;;;;;;;15.73;9.88;;;8.50;93.50;;;;;;4970232;28;20034;-66
2021/11/26 01:52:05;;;;;;;16.88;9.68;;;8.50;93.50;;;;;;4958581;28;20085;-65
2021/11/26 01:54:31;;;;;;;15.05;8.48;;;8.50;93.50;;;;;;4973218;28;20023;-65
2021/11/26 01:56:57;;;;;;;17.02;9.55;;;8.50;93.50;;;;;;4972530;28;20074;-66
2021/11/26 01:59:23;;;;;;;20.65;9.50;;;8.50;93.50;;;;;;4956351;28;20023;-66
2021/11/26 02:01:48;;;;;;;21.50;9.95;;;8.50;93.50;;;;;;4972709;28;20387;-65
2021/11/26 02:04:14;;;;;;;20.85;9.05;;;8.50;93.50;;;;;;4972759;28;20038;-65
2021/11/26 02:06:40;;;;;;;17.50;9.50;;;8.60;93.50;;;;;;4972494;28;20435;-65
2021/11/26 02:09:05;;;;;;;16.25;9.23;;;8.50;93.50;;;;;;4970427;28;20078;-66
2021/11/26 02:11:31;;;;;;;16.58;9.02;;;8.50;93.50;;;;;;4973523;28;20144;-65
2021/11/26 02:13:57;;;;;;;19.73;10.43;;;8.50;93.50;;;;;;4971145;28;20038;-65
2021/11/26 02:16:22;;;;;;;13.13;7.93;;;8.50;93.70;;;;;;4973384;28;20364;-65
2021/11/26 02:18:51;;;;;;;15.85;8.48;;;8.50;93.50;;;;;;4966429;28;20027;-65
2021/11/26 02:21:19;;;;;;;22.70;9.93;;;8.60;93.50;;;;;;4969872;28;20062;-65
2021/11/26 02:23:46;;;;;;;15.90;8.95;;;8.50;93.40;;;;;;4967100;28;20043;-65
2021/11/26 02:26:11;;;;;;;18.50;9.48;;;8.60;93.50;;;;;;4972396;28;20374;-65
2021/11/26 02:28:37;;;;;;;17.92;8.88;;;8.50;93.40;;;;;;4971250;28;20035;-65
2021/11/26 02:31:03;;;;;;;19.65;8.90;;;8.60;93.40;;;;;;4956143;28;20023;-64
2021/11/26 02:33:29;;;;;;;18.95;10.00;;;8.60;93.40;;;;;;4971508;28;20037;-64
2021/11/26 02:35:55;;;;;;;19.38;9.57;;;8.60;93.50;;;;;;4973350;28;20022;-64
2021/11/26 02:38:23;;;;;;;19.10;9.13;;;8.60;93.50;;;;;;4972138;28;20031;-66
2021/11/26 02:40:49;;;;;;;16.33;9.05;;;8.60;93.40;;;;;;4969879;28;20323;-65
2021/11/26 02:43:16;;;;;;;19.05;9.68;;;8.60;93.40;;;;;;4965409;28;20156;-65
2021/11/26 02:45:44;;;;;;;22.60;10.82;;;8.50;93.40;;;;;;4973090;28;20037;-65
2021/11/26 02:48:12;;;;;;;16.92;9.38;;;8.50;93.50;;;;;;4972348;28;20481;-65
2021/11/26 02:50:38;;;;;;;16.80;9.90;;;8.50;93.50;;;;;;4972925;28;20398;-65
2021/11/26 02:53:04;;;;;;;19.20;9.40;;;8.50;93.40;;;;;;4971495;28;20589;-65
2021/11/26 02:55:32;;;;;;;18.55;9.10;;;8.60;93.50;;;;;;4951265;28;20134;-65
2021/11/26 02:57:59;;;;;;;18.30;9.07;;;8.60;93.50;;;;;;4971295;28;20043;-65
2021/11/26 03:00:26;;;;;;;17.27;8.98;;;8.60;93.50;;;;;;4972740;28;20113;-64
2021/11/26 03:02:53;;;;;;;21.30;9.07;;;8.60;93.50;;;;;;4971511;28;20597;-64
2021/11/26 03:05:19;;;;;;;15.80;8.43;;;8.60;93.50;;;;;;4972970;28;20622;-64
2021/11/26 03:07:45;;;;;;;19.27;10.00;;;8.60;93.40;;;;;;4971595;28;20031;-64
2021/11/26 03:10:17;;;;;;;27.88;11.15;;;8.60;93.40;;;;;;4971374;28;20027;-65
2021/11/26 03:12:50;;;;;;;19.85;9.27;;;8.60;93.50;;;;;;4970628;28;20073;-65
2021/11/26 03:15:17;;;;;;;18.05;9.13;;;8.60;93.40;;;;;;4956671;28;20126;-65
2021/11/26 03:17:43;;;;;;;22.20;10.40;;;8.60;93.50;;;;;;4965989;28;20063;-65
2021/11/26 03:20:09;;;;;;;18.92;9.43;;;8.60;93.50;;;;;;4970301;28;20431;-65
2021/11/26 03:22:35;;;;;;;20.27;9.18;;;8.60;93.50;;;;;;4962913;28;20085;-65
2021/11/26 03:25:02;;;;;;;21.15;11.15;;;8.60;93.50;;;;;;4964276;28;20071;-64
2021/11/26 03:27:29;;;;;;;24.40;10.65;;;8.60;93.60;;;;;;4963258;28;20089;-64
2021/11/26 03:29:54;;;;;;;18.35;9.85;;;8.60;93.50;;;;;;4955303;28;20042;-64
2021/11/26 03:32:20;;;;;;;18.00;9.70;;;8.50;93.50;;;;;;4969103;28;20027;-64
2021/11/26 03:34:46;;;;;;;17.10;8.70;;;8.60;93.60;;;;;;4968023;28;20410;-64
2021/11/26 03:37:12;;;;;;;16.33;9.10;;;8.60;93.60;;;;;;4964669;28;20039;-65
2021/11/26 03:39:37;;;;;;;16.25;9.23;;;8.60;93.60;;;;;;4974794;28;20109;-65
2021/11/26 03:42:03;;;;;;;21.60;9.35;;;8.60;93.60;;;;;;4972602;28;20127;-65
2021/11/26 03:44:29;;;;;;;15.43;8.85;;;8.60;93.60;;;;;;4976324;28;20031;-66
2021/11/26 03:46:54;;;;;;;17.10;9.00;;;8.70;93.60;;;;;;4975412;28;20057;-66
2021/11/26 03:49:20;;;;;;;19.60;9.55;;;8.70;93.50;;;;;;4976236;28;20450;-66
2021/11/26 03:51:46;;;;;;;21.75;11.55;;;8.70;93.50;;;;;;4974348;28;20106;-66
2021/11/26 03:54:11;;;;;;;19.40;9.70;;;8.60;93.50;;;;;;4976341;28;20039;-66
2021/11/26 03:56:37;;;;;;;19.48;10.20;;;8.60;93.50;;;;;;4974816;28;20130;-66
2021/11/26 03:59:06;;;;;;;19.73;9.85;;;8.60;93.50;;;;;;4972762;28;20533;-66
2021/11/26 04:01:31;;;;;;;17.20;8.93;;;8.60;93.60;;;;;;4967061;28;20027;-66
2021/11/26 04:03:57;;;;;;;16.60;11.30;;;8.60;93.80;;;;;;4961362;28;20039;-66
2021/11/26 04:06:23;;;;;;;22.23;11.02;;;8.60;93.60;;;;;;4961565;28;20078;-66
2021/11/26 04:08:48;;;;;;;19.95;10.27;;;8.60;93.60;;;;;;4973890;28;20031;-66
2021/11/26 04:11:14;;;;;;;23.80;10.57;;;8.60;93.60;;;;;;4976095;28;20069;-66
2021/11/26 04:13:40;;;;;;;23.08;9.43;;;8.60;93.70;;;;;;4975040;28;20035;-66
2021/11/26 04:16:12;;;;;;;17.67;9.38;;;8.60;93.70;;;;;;4974608;28;20027;-66
2021/11/26 04:18:38;;;;;;;19.80;9.27;;;8.60;93.70;;;;;;4974000;28;20077;-66
2021/11/26 04:21:03;;;;;;;21.48;9.80;;;8.60;93.70;;;;;;4975261;28;20023;-66
2021/11/26 04:23:29;;;;;;;16.40;9.70;;;8.60;93.70;;;;;;4974075;28;20035;-66
2021/11/26 04:25:56;;;;;;;18.95;9.55;;;8.50;93.70;;;;;;4974426;28;20022;-66
2021/11/26 04:28:22;;;;;;;17.30;9.57;;;8.60;93.70;;;;;;4971055;28;20391;-66
2021/11/26 04:30:48;;;;;;;14.73;9.13;;;8.60;93.70;;;;;;4970476;28;20030;-66
2021/11/26 04:33:13;;;;;;;16.10;9.60;;;8.50;93.70;;;;;;4974775;28;20031;-65
2021/11/26 04:35:39;;;;;;;17.58;9.38;;;8.60;93.70;;;;;;4975058;28;20556;-65
2021/11/26 04:38:04;;;;;;;19.30;10.45;;;8.60;93.70;;;;;;4974545;28;20478;-66
2021/11/26 04:40:30;;;;;;;18.85;10.27;;;8.60;93.70;;;;;;4975427;28;20090;-65
2021/11/26 04:42:56;;;;;;;20.35;9.98;;;8.60;93.80;;;;;;4974387;28;20046;-65
2021/11/26 04:45:21;;;;;;;22.00;10.65;;;8.50;93.80;;;;;;4972637;28;20585;-65
2021/11/26 04:47:47;;;;;;;21.70;10.40;;;8.50;93.80;;;;;;4965130;28;20765;-65
2021/11/26 04:50:15;;;;;;;18.83;9.52;;;8.50;93.80;;;;;;4970540;28;20038;-65
2021/11/26 04:52:40;;;;;;;22.00;9.52;;;8.50;93.90;;;;;;4954513;28;20029;-65
2021/11/26 04:55:08;;;;;;;20.85;11.18;;;8.60;93.90;;;;;;4970236;28;20030;-65
2021/11/26 04:57:34;;;;;;;20.60;11.45;;;8.50;93.90;;;;;;4967338;28;20050;-65
2021/11/26 05:00:00;;;;;;;19.05;10.38;;;8.50;93.90;;;;;;4966011;28;20035;-65
2021/11/26 05:02:27;;;;;;;21.70;9.50;;;8.50;93.90;;;;;;4973422;28;20466;-65
2021/11/26 05:04:53;;;;;;;20.70;9.98;;;8.40;93.80;;;;;;4974548;28;20030;-65
2021/11/26 05:07:20;;;;;;;16.27;9.65;;;8.50;93.90;;;;;;4973880;28;20023;-65
2021/11/26 05:09:47;;;;;;;16.10;9.23;;;8.50;93.90;;;;;;4974448;28;20026;-65
2021/11/26 05:12:13;;;;;;;19.60;8.90;;;8.50;93.90;;;;;;4973266;28;20475;-65
2021/11/26 05:14:39;;;;;;;18.95;8.77;;;8.50;93.90;;;;;;4974765;28;20069;-65
2021/11/26 05:17:05;;;;;;;16.15;8.43;;;8.50;93.80;;;;;;4973622;28;20054;-64
2021/11/26 05:19:31;;;;;;;18.38;9.88;;;8.50;93.80;;;;;;4953581;28;20075;-65
2021/11/26 05:21:56;;;;;;;21.60;9.40;;;8.50;93.80;;;;;;4973798;28;20026;-65
2021/11/26 05:24:22;;;;;;;16.85;9.60;;;8.50;93.80;;;;;;4974017;28;20039;-65
2021/11/26 05:26:48;;;;;;;21.52;9.30;;;8.50;93.90;;;;;;4972318;28;20042;-65
2021/11/26 05:29:13;;;;;;;20.98;9.00;;;8.50;93.90;;;;;;4953588;28;20493;-65
2021/11/26 05:31:39;;;;;;;20.75;9.82;;;8.50;93.90;;;;;;4956173;28;20434;-65
2021/11/26 05:34:06;;;;;;;19.20;9.48;;;8.50;93.90;;;;;;4973887;28;20031;-65
2021/11/26 05:36:33;;;;;;;22.35;9.13;;;8.50;93.90;;;;;;4973222;28;20034;-65
2021/11/26 05:38:59;;;;;;;18.55;9.45;;;8.50;94.00;;;;;;4973518;28;20038;-65
2021/11/26 05:41:25;;;;;;;18.20;9.23;;;8.40;94.00;;;;;;4970203;28;20030;-65
2021/11/26 05:43:51;;;;;;;18.23;10.27;;;8.40;94.00;;;;;;4972562;28;20031;-65
2021/11/26 05:46:16;;;;;;;17.58;9.65;;;8.40;94.00;;;;;;4973900;28;20026;-65
2021/11/26 05:48:42;;;;;;;22.80;10.60;;;8.40;94.00;;;;;;4972999;28;20126;-65
2021/11/26 05:51:08;;;;;;;18.77;10.48;;;8.50;94.10;;;;;;4974334;28;20106;-65
2021/11/26 05:53:33;;;;;;;20.33;8.77;;;8.50;94.00;;;;;;4970342;28;20053;-65
2021/11/26 05:56:00;;;;;;;24.63;10.02;;;8.40;94.00;;;;;;4972375;28;20069;-66
2021/11/26 05:58:27;;;;;;;18.90;10.50;;;8.50;94.10;;;;;;4972727;28;20031;-65
2021/11/26 06:00:53;;;;;;;18.75;9.43;;;8.50;94.00;;;;;;4973271;28;20034;-65
2021/11/26 06:03:19;;;;;;;19.35;10.70;;;8.50;94.00;;;;;;4972881;28;20039;-65
2021/11/26 06:05:45;;;;;;;18.55;9.73;;;8.50;94.00;;;;;;4973482;28;20041;-65
2021/11/26 06:08:10;;;;;;;22.80;11.02;;;8.50;94.00;;;;;;4969289;28;20118;-65
2021/11/26 06:10:36;;;;;;;18.15;10.10;;;8.50;94.00;;;;;;4973351;28;20027;-64
2021/11/26 06:13:02;;;;;;;17.13;10.00;;;8.50;94.00;;;;;;4954380;28;20030;-65
2021/11/26 06:15:27;;;;;;;21.45;9.18;;;8.50;93.90;;;;;;4973310;28;20443;-65
2021/11/26 06:17:53;;;;;;;19.17;9.85;;;8.50;93.90;;;;;;4972744;28;20030;-66
2021/11/26 06:20:20;;;;;;;23.85;10.63;;;8.50;94.00;;;;;;4973336;28;20023;-66
2021/11/26 06:22:46;;;;;;;20.30;9.52;;;8.50;93.90;;;;;;4967017;28;20041;-65
2021/11/26 06:25:13;;;;;;;18.58;9.45;;;8.50;93.90;;;;;;4973232;28;20078;-65
2021/11/26 06:27:39;;;;;;;15.27;8.07;;;8.50;93.90;;;;;;4971089;28;20039;-66
2021/11/26 06:30:06;;;;;;;18.73;8.20;;;8.50;93.80;;;;;;4972766;28;20085;-66
2021/11/26 06:32:32;;;;;;;18.38;8.45;;;8.40;93.80;;;;;;4971588;28;20054;-66
2021/11/26 06:34:57;;;;;;;19.42;8.27;;;8.40;93.80;;;;;;4973253;28;20069;-66
2021/11/26 06:37:24;;;;;;;15.75;7.65;;;8.40;93.90;;;;;;4972241;28;20026;-66
2021/11/26 06:39:49;;;;;;;14.80;7.43;;;8.40;93.70;;;;;;4972924;28;20042;-66
2021/11/26 06:42:15;;;;;;;18.50;7.45;;;8.40;93.60;;;;;;4971740;28;20022;-66
2021/11/26 06:44:41;;;;;;;17.33;7.55;;;8.40;93.50;;;;;;4971919;28;20405;-66
2021/11/26 06:47:06;;;;;;;15.05;7.88;;;8.40;93.40;;;;;;4972147;28;20027;-66
2021/11/26 06:49:32;;;;;;;17.23;8.20;;;8.40;93.30;;;;;;4973298;28;20109;-65
2021/11/26 06:51:58;;;;;;;14.70;7.22;;;8.40;93.30;;;;;;4972199;28;20018;-65
2021/11/26 06:54:23;;;;;;;12.60;6.82;;;8.40;93.20;;;;;;4972886;28;20038;-65
2021/11/26 06:56:49;;;;;;;15.95;8.15;;;8.40;93.20;;;;;;4971789;28;20047;-64
2021/11/26 06:59:15;;;;;;;15.73;7.60;;;8.40;93.20;;;;;;4970986;28;20027;-65
2021/11/26 07:01:41;;;;;;;19.17;8.52;;;8.40;93.20;;;;;;4954397;28;20482;-64
2021/11/26 07:04:08;;;;;;;15.73;7.57;;;8.30;93.20;;;;;;4953399;29;20044;-63
2021/11/26 07:06:34;;;;;;;17.95;7.47;;;8.40;93.20;;;;;;4953579;28;20031;-63
2021/11/26 07:09:00;;;;;;;16.40;7.22;;;8.40;93.20;;;;;;4956996;28;20093;-64
2021/11/26 07:11:26;;;;;;;14.07;6.95;;;8.40;93.20;;;;;;4964048;28;20534;-64
2021/11/26 07:13:51;;;;;;;22.13;8.90;;;8.40;93.20;;;;;;4970059;28;20486;-65
2021/11/26 07:16:18;;;;;;;19.85;7.45;;;8.30;93.30;;;;;;4962139;28;20030;-63
2021/11/26 07:22:06;;;;;;;17.75;7.18;;;8.30;93.30;;;;;;4966707;28;20042;-66
2021/11/26 07:24:33;;;;;;;15.07;6.85;;;8.30;93.20;;;;;;4969605;28;20077;-65
2021/11/26 07:26:59;;;;;;;12.55;7.80;;;8.40;93.20;;;;;;4962703;28;20031;-62
2021/11/26 07:29:24;;;;;;;15.35;7.47;;;8.40;93.20;;;;;;4968850;28;20042;-64
2021/11/26 07:31:50;;;;;;;16.75;7.47;;;8.40;93.20;;;;;;4967549;28;20494;-64
2021/11/26 07:34:16;;;;;;;13.68;6.63;;;8.40;93.10;;;;;;4960545;28;20117;-64
2021/11/26 07:36:41;;;;;;;11.88;6.70;;;8.40;93.10;;;;;;4957260;28;20034;-65
2021/11/26 07:39:08;;;;;;;15.73;7.43;;;8.40;93.00;;;;;;4965318;28;20039;-64
2021/11/26 07:41:33;;;;;;;11.82;6.88;;;8.40;93.00;;;;;;4966913;28;20035;-63
2021/11/26 07:43:59;;;;;;;13.85;7.35;;;8.40;92.90;;;;;;4970323;28;20042;-65
2021/11/26 07:46:27;;;;;;;16.48;6.93;;;8.50;92.90;;;;;;4963970;28;20061;-65
2021/11/26 07:48:53;;;;;;;14.18;8.00;;;8.40;92.80;;;;;;4963287;28;20047;-64
2021/11/26 07:51:18;;;;;;;11.88;7.15;;;8.50;92.80;;;;;;4962832;28;20027;-65
2021/11/26 07:53:44;;;;;;;12.88;7.07;;;8.40;92.80;;;;;;4964119;28;20033;-65
2021/11/26 07:56:09;;;;;;;18.17;6.80;;;8.50;92.70;;;;;;4968049;28;20133;-65
2021/11/26 07:58:35;;;;;;;15.90;6.90;;;8.50;92.70;;;;;;4966161;28;20042;-64
2021/11/26 08:01:01;;;;;;;14.88;6.78;;;8.50;92.70;;;;;;4946883;28;20081;-65
2021/11/26 08:03:26;;;;;;;12.75;6.75;;;8.50;92.70;;;;;;4965060;28;20039;-64
2021/11/26 08:05:52;;;;;;;16.17;7.38;;;8.50;92.70;;;;;;4970117;28;20035;-65
2021/11/26 08:08:18;;;;;;;14.32;6.72;;;8.50;92.70;;;;;;4964066;28;20027;-65
2021/11/26 08:10:44;;;;;;;13.68;6.47;;;8.50;92.70;;;;;;4961777;28;20118;-65
2021/11/26 08:13:09;;;;;;;14.07;6.18;;;8.60;92.70;;;;;;4944260;28;20034;-65
2021/11/26 08:15:36;;;;;;;13.02;7.05;;;8.60;92.70;;;;;;4963267;28;20039;-65
2021/11/26 08:18:05;;;;;;;21.08;7.03;;;8.60;92.70;;;;;;4962149;28;20502;-65
2021/11/26 08:20:31;;;;;;;16.33;7.22;;;8.70;92.60;;;;;;4964332;28;20542;-65
2021/11/26 08:22:57;;;;;;;14.60;6.88;;;8.70;92.60;;;;;;4965254;28;20039;-65
2021/11/26 08:25:26;;;;;;;12.80;6.90;;;8.70;92.60;;;;;;4967052;28;20493;-65
2021/11/26 08:27:53;;;;;;;15.90;6.15;;;8.80;92.60;;;;;;4973006;28;20046;-65
2021/11/26 08:30:20;;;;;;;16.88;6.75;;;8.80;92.50;;;;;;4966181;28;20649;-65
2021/11/26 08:32:46;;;;;;;13.95;7.13;;;8.90;92.50;;;;;;4963598;28;20080;-64
2021/11/26 08:35:12;;;;;;;17.08;6.97;;;8.90;92.40;;;;;;4973831;28;20018;-64
2021/11/26 08:37:38;;;;;;;16.98;7.38;;;8.90;92.40;;;;;;4972433;28;20042;-65
2021/11/26 08:40:05;;;;;;;16.83;7.10;;;9.00;92.60;;;;;;4973903;28;20038;-63
2021/11/26 08:42:31;;;;;;;13.02;6.88;;;9.00;92.20;;;;;;4964749;28;20034;-64
2021/11/26 08:44:57;;;;;;;14.93;6.85;;;9.10;92.20;;;;;;4972997;28;20035;-65
2021/11/26 08:47:23;;;;;;;15.65;7.20;;;9.10;92.20;;;;;;4971011;28;20030;-65
2021/11/26 08:49:48;;;;;;;16.25;8.70;;;9.10;92.20;;;;;;4952320;28;20101;-64
2021/11/26 08:52:14;;;;;;;16.55;7.97;;;9.20;92.10;;;;;;4973139;28;20023;-65
2021/11/26 08:54:41;;;;;;;15.43;8.30;;;9.20;92.00;;;;;;4964411;28;20102;-65
2021/11/26 08:57:07;;;;;;;20.65;9.70;;;9.20;92.00;;;;;;4967834;28;20046;-64
2021/11/26 08:59:32;;;;;;;16.55;7.30;;;9.20;91.90;;;;;;4965733;28;20494;-64
2021/11/26 09:01:59;;;;;;;16.92;7.65;;;9.30;91.90;;;;;;4964914;28;20090;-64
2021/11/26 09:04:25;;;;;;;15.48;8.90;;;9.30;91.90;;;;;;4964844;28;20046;-64
2021/11/26 09:06:52;;;;;;;16.40;7.72;;;9.30;91.90;;;;;;4972141;28;20149;-65
2021/11/26 09:09:22;;;;;;;13.77;7.88;;;9.30;91.90;;;;;;4961708;28;20090;-65
2021/11/26 09:11:49;;;;;;;18.60;7.90;;;9.30;91.90;;;;;;4965445;28;20026;-64
2021/11/26 09:14:15;;;;;;;15.45;8.10;;;9.30;91.90;;;;;;4970428;28;20085;-65
2021/11/26 09:16:41;;;;;;;20.63;8.85;;;9.40;91.90;;;;;;4961478;28;20033;-65
2021/11/26 09:19:06;;;;;;;15.43;8.43;;;9.40;91.80;;;;;;4966589;28;20030;-65
2021/11/26 09:21:33;;;;;;;16.65;8.38;;;9.40;91.70;;;;;;4972035;28;20430;-65
2021/11/26 09:23:58;;;;;;;20.13;9.05;;;9.40;91.60;;;;;;4965892;28;20394;-64
2021/11/26 09:26:24;;;;;;;18.08;8.63;;;9.50;91.60;;;;;;4972357;28;20030;-65
2021/11/26 09:28:50;;;;;;;16.20;8.55;;;9.50;91.60;;;;;;4958794;28;20045;-65
2021/11/26 09:31:16;;;;;;;18.35;8.15;;;9.50;91.60;;;;;;4967694;28;20379;-65
2021/11/26 09:33:43;;;;;;;16.45;8.23;;;9.50;91.50;;;;;;4970392;28;20070;-65
2021/11/26 09:36:11;;;;;;;14.95;7.50;;;9.60;91.40;;;;;;4975659;28;20027;-65
2021/11/26 09:38:38;;;;;;;14.93;7.78;;;9.60;91.30;;;;;;4967507;28;20421;-64
2021/11/26 09:41:06;;;;;;;13.80;7.78;;;9.60;91.10;;;;;;4972559;28;20031;-65
2021/11/26 09:43:34;;;;;;;16.67;7.28;;;9.70;91.10;;;;;;4975446;28;20046;-65
2021/11/26 09:46:03;;;;;;;14.85;7.45;;;9.70;91.00;;;;;;4972563;28;20090;-65
2021/11/26 09:48:29;;;;;;;14.43;7.57;;;9.70;90.90;;;;;;4966243;28;20038;-65
2021/11/26 09:50:55;;;;;;;19.17;10.23;;;9.80;90.90;;;;;;4965268;28;20414;-65
2021/11/26 09:53:26;;;;;;;16.30;8.00;;;9.80;90.80;;;;;;4963830;28;20030;-65
2021/11/26 09:55:56;;;;;;;17.77;9.20;;;9.80;90.70;;;;;;4965240;28;20120;-65
2021/11/26 09:58:23;;;;;;;12.32;7.93;;;9.80;90.70;;;;;;4963554;28;20078;-65
2021/11/26 10:00:50;;;;;;;18.98;8.82;;;9.90;90.70;;;;;;4964943;28;20590;-64
2021/11/26 10:03:17;;;;;;;20.23;9.82;;;9.90;90.70;;;;;;4959532;28;20043;-65
2021/11/26 10:05:45;;;;;;;18.08;9.73;;;9.90;90.80;;;;;;4966929;28;20085;-64
2021/11/26 10:08:11;;;;;;;16.90;8.85;;;9.80;90.80;;;;;;4952377;28;20023;-64
2021/11/26 10:10:41;;;;;;;22.95;9.52;;;9.80;90.80;;;;;;4964076;28;20030;-65
2021/11/26 10:13:13;;;;;;;18.10;10.07;;;9.90;90.80;;;;;;4964014;28;20035;-65
2021/11/26 10:15:43;;;;;;;15.77;8.73;;;9.80;90.80;;;;;;4964920;28;20061;-64
2021/11/26 10:18:15;;;;;;;25.27;9.98;;;9.80;90.80;;;;;;4964389;28;20031;-64
2021/11/26 10:20:54;;;;;;;20.35;10.27;;;9.80;90.70;;;;;;4950783;28;20419;-64
2021/11/26 10:23:22;;;;;;;16.95;10.05;;;9.80;90.80;;;;;;4962128;28;20043;-63
2021/11/26 10:25:48;;;;;;;20.17;11.30;;;9.70;90.80;;;;;;4957259;28;20511;-64
2021/11/26 10:28:13;;;;;;;17.92;10.20;;;9.70;90.80;;;;;;4959115;28;20062;-64
2021/11/26 10:30:42;;;;;;;20.58;10.82;;;9.70;90.90;;;;;;4967453;28;20162;-65
2021/11/26 10:33:16;;;;;;;17.73;11.20;;;9.70;91.00;;;;;;4949276;28;20498;-65
2021/11/26 10:35:57;;;;;;;20.13;11.13;;;9.70;91.00;;;;;;4965272;28;20699;-65
2021/11/26 10:38:27;;;;;;;20.08;11.23;;;9.70;91.00;;;;;;4954029;28;20024;-65
2021/11/26 10:41:14;;;;;;;23.83;11.88;;;9.70;91.00;;;;;;4948940;28;20509;-64
2021/11/26 10:46:43;;;;;;;;;;;9.70;90.90;;;;;;4951578;28;20534;-65
2021/11/26 10:59:49;;;;;;;23.10;13.43;;;9.80;90.90;;;;;;4967819;28;20027;-63
2021/11/26 11:02:30;;;;;;;21.52;12.13;;;9.80;90.90;;;;;;4974003;28;20494;-64
2021/11/26 11:04:56;;;;;;;20.98;11.52;;;9.80;90.90;;;;;;4965909;28;20049;-63
2021/11/26 11:07:22;;;;;;;21.25;12.00;;;9.80;90.90;;;;;;4975534;28;20031;-64
2021/11/26 11:09:52;;;;;;;21.58;12.02;;;9.80;90.90;;;;;;4941814;28;20386;-64
2021/11/26 11:12:28;;;;;;;19.15;11.45;;;9.80;90.80;;;;;;4966335;28;20015;-64
2021/11/26 11:14:57;;;;;;;20.77;12.38;;;9.80;90.80;;;;;;4963292;28;20533;-64
2021/11/26 11:17:27;;;;;;;22.17;11.63;;;9.80;90.80;;;;;;4962514;28;20581;-63
2021/11/26 11:19:59;;;;;;;19.83;11.70;;;9.80;90.80;;;;;;4962984;28;20070;-63
2021/11/26 11:22:26;;;;;;;23.45;12.52;;;9.80;90.70;;;;;;4973057;28;20085;-64
2021/11/26 11:24:52;;;;;;;19.63;11.23;;;9.80;90.70;;;;;;4953326;28;20524;-63
2021/11/26 11:27:18;;;;;;;23.52;12.27;;;9.80;90.70;;;;;;4972903;28;20031;-63
2021/11/26 11:29:44;;;;;;;22.30;11.90;;;9.80;90.60;;;;;;4964373;28;20093;-62
2021/11/26 11:32:11;;;;;;;25.33;11.75;;;9.80;90.60;;;;;;4978178;28;20475;-64
2021/11/26 11:34:37;;;;;;;20.77;11.70;;;9.80;90.60;;;;;;4973440;28;20030;-64
2021/11/26 11:37:07;;;;;;;21.75;12.30;;;9.90;90.60;;;;;;4971703;28;20023;-63
2021/11/26 11:39:49;;;;;;;22.35;11.52;;;9.90;90.60;;;;;;4967703;28;20027;-62
2021/11/26 11:42:25;;;;;;;17.85;10.70;;;10.00;90.50;;;;;;4972559;28;20034;-64
2021/11/26 11:44:59;;;;;;;20.05;11.52;;;10.00;90.50;;;;;;4969840;28;20049;-63
2021/11/26 11:47:26;;;;;;;22.67;11.23;;;10.10;90.40;;;;;;4970733;28;20110;-64
2021/11/26 11:50:23;;;;;;;18.83;11.63;;;10.10;90.30;;;;;;4971253;28;20051;-64
2021/11/26 11:52:53;;;;;;;19.10;11.13;;;10.10;90.20;;;;;;4954570;28;20045;-63
2021/11/26 11:55:39;;;;;;;21.10;10.85;;;10.00;90.20;;;;;;4974340;28;20058;-63
2021/11/26 11:58:27;;;;;;;18.85;10.65;;;10.00;90.30;;;;;;4960451;28;20031;-64
2021/11/26 12:00:55;;;;;;;19.27;12.00;;;10.10;90.30;;;;;;4969826;28;20038;-63
2021/11/26 12:03:23;;;;;;;20.13;11.10;;;10.10;90.30;;;;;;4972145;28;20039;-64
2021/11/26 12:06:04;;;;;;;19.05;10.93;;;10.00;90.10;;;;;;4972779;28;20038;-63
2021/11/26 12:08:30;;;;;;;19.52;10.90;;;10.00;90.20;;;;;;4972494;28;20089;-63
2021/11/26 12:10:58;;;;;;;19.48;11.15;;;10.10;90.10;;;;;;4963403;28;20117;-63
2021/11/26 12:13:36;;;;;;;23.40;11.38;;;10.10;89.80;;;;;;4967251;28;20049;-64
2021/11/26 12:16:16;;;;;;;21.95;12.32;;;10.10;89.60;;;;;;4967955;28;20039;-64
2021/11/26 12:18:48;;;;;;;22.65;11.25;;;10.00;89.60;;;;;;4970979;28;20035;-63
2021/11/26 12:21:18;;;;;;;19.23;10.80;;;9.90;89.60;;;;;;4964024;28;20026;-64
2021/11/26 12:24:00;;;;;;;17.23;10.13;;;9.80;89.60;;;;;;4963616;28;20070;-63
2021/11/26 12:26:30;;;;;;;22.33;11.18;;;9.80;89.60;;;;;;4969371;28;20533;-63
2021/11/26 12:28:59;;;;;;;18.65;10.75;;;9.70;89.70;;;;;;4968564;28;20047;-64
2021/11/26 12:31:35;;;;;;;18.90;10.85;;;9.60;89.70;;;;;;4973431;28;20429;-64
2021/11/26 12:34:04;;;;;;;19.05;11.07;;;9.60;89.80;;;;;;4972406;28;20031;-64
2021/11/26 12:36:55;;;;;;;18.27;10.68;;;9.50;89.80;;;;;;4971952;28;20066;-63
2021/11/26 12:39:29;;;;;;;15.30;10.30;;;9.40;89.90;;;;;;4949952;29;20497;-64
2021/11/26 12:41:57;;;;;;;18.10;10.23;;;9.30;90.00;;;;;;4951851;28;20034;-63
2021/11/26 12:44:32;;;;;;;21.83;12.10;;;9.30;90.20;;;;;;4954786;28;20047;-64
2021/11/26 12:47:17;;;;;;;21.70;10.63;;;9.30;90.00;;;;;;4936733;28;20091;-63
2021/11/26 12:52:13;;;;;;;19.98;10.70;;;9.20;90.10;;;;;;4963968;28;20074;-63
2021/11/26 12:54:45;;;;;;;16.90;9.98;;;9.20;90.10;;;;;;4973681;28;20031;-64
2021/11/26 12:57:31;;;;;;;16.25;9.75;;;9.10;90.10;;;;;;4974800;28;20046;-64
2021/11/26 12:59:59;;;;;;;14.73;9.35;;;9.20;90.10;;;;;;4974178;28;20043;-64
2021/11/26 13:02:28;;;;;;;14.40;8.95;;;9.10;90.00;;;;;;4967058;28;20031;-64
2021/11/26 13:04:56;;;;;;;18.67;9.40;;;9.10;90.00;;;;;;4959700;28;20934;-66